Time;durP1;ratioP1;P1;durP2;ratioP2;P2;SDS_P1;SDS_P2;PMS_P1;PMS_P2;Temp;Humidity;BMP_temperature;BMP_pressure;BME280_temperature;BME280_humidity;BME280_pressure;Samples;Min_cycle;Max_cycle;Signal;HPM_P1;HPM_P2
2023/10/27 00:01:08;;;;;;;25.05;13.77;;;10.10;99.90;;;;;;4768958;30;20490;-52
2023/10/27 00:03:35;;;;;;;22.20;14.05;;;10.10;99.90;;;;;;4782737;30;20493;-49
2023/10/27 00:06:00;;;;;;;22.10;13.85;;;10.10;99.90;;;;;;4767605;30;20063;-50
2023/10/27 00:08:26;;;;;;;22.67;13.77;;;10.10;99.90;;;;;;4768777;30;20047;-50
2023/10/27 00:10:53;;;;;;;19.70;12.93;;;10.10;99.90;;;;;;4768903;30;20126;-51
2023/10/27 00:13:19;;;;;;;22.35;13.43;;;10.00;99.90;;;;;;4769028;30;20043;-53
2023/10/27 00:15:45;;;;;;;21.80;13.00;;;10.10;99.90;;;;;;4772105;30;20318;-53
2023/10/27 00:18:11;;;;;;;19.67;12.52;;;10.00;99.90;;;;;;4772363;30;20050;-51
2023/10/27 00:20:37;;;;;;;21.80;12.98;;;10.00;99.90;;;;;;4772333;30;20400;-50
2023/10/27 00:23:03;;;;;;;21.90;13.70;;;10.00;99.90;;;;;;4771614;30;20050;-52
2023/10/27 00:25:29;;;;;;;21.02;13.25;;;10.00;99.90;;;;;;4771913;30;20178;-52
2023/10/27 00:27:54;;;;;;;22.50;13.38;;;10.00;99.90;;;;;;4771597;30;20039;-49
2023/10/27 00:30:20;;;;;;;22.48;13.85;;;10.00;99.90;;;;;;4771867;30;20126;-53
2023/10/27 00:32:46;;;;;;;20.77;13.13;;;9.90;99.90;;;;;;4770544;30;20503;-51
2023/10/27 00:35:12;;;;;;;23.33;13.40;;;10.00;99.90;;;;;;4771727;30;20047;-50
2023/10/27 00:37:38;;;;;;;21.65;13.38;;;10.00;99.90;;;;;;4771539;30;20397;-51
2023/10/27 00:40:04;;;;;;;21.35;13.60;;;10.10;99.90;;;;;;4771369;30;20051;-51
2023/10/27 00:42:30;;;;;;;21.25;14.10;;;10.00;99.90;;;;;;4771526;30;20405;-50
2023/10/27 00:44:56;;;;;;;24.70;15.30;;;10.00;99.90;;;;;;4771535;30;20051;-50
2023/10/27 00:47:25;;;;;;;23.10;14.40;;;10.10;99.90;;;;;;4771532;30;20078;-49
2023/10/27 00:49:52;;;;;;;24.92;14.77;;;10.10;99.90;;;;;;4771478;30;20047;-49
2023/10/27 00:52:20;;;;;;;24.65;14.30;;;10.10;99.90;;;;;;4771424;30;20558;-50
2023/10/27 00:54:47;;;;;;;25.20;14.93;;;10.10;99.90;;;;;;4755080;30;20497;-51
2023/10/27 00:57:14;;;;;;;21.45;13.73;;;10.10;99.90;;;;;;4771292;30;20375;-51
2023/10/27 00:59:41;;;;;;;21.33;13.23;;;10.10;99.90;;;;;;4735949;30;20053;-50
2023/10/27 01:02:07;;;;;;;21.85;13.20;;;10.10;99.90;;;;;;4735787;30;20056;-50
2023/10/27 01:04:33;;;;;;;21.48;12.80;;;10.10;99.90;;;;;;4735925;30;20037;-50
2023/10/27 01:06:58;;;;;;;19.98;11.80;;;10.10;99.90;;;;;;4735750;30;20622;-53
2023/10/27 01:09:24;;;;;;;22.23;13.18;;;10.10;99.90;;;;;;4735693;30;20052;-53
2023/10/27 01:11:51;;;;;;;18.73;12.50;;;10.10;99.90;;;;;;4735392;30;20426;-48
2023/10/27 01:14:18;;;;;;;19.67;12.68;;;10.10;99.90;;;;;;4735503;30;20041;-50
2023/10/27 01:16:43;;;;;;;21.23;11.95;;;10.10;99.90;;;;;;4735697;30;20044;-49
2023/10/27 01:19:09;;;;;;;20.27;13.57;;;10.10;99.90;;;;;;4735592;30;20103;-50
2023/10/27 01:21:35;;;;;;;20.50;12.05;;;10.10;99.90;;;;;;4735523;30;20044;-51
2023/10/27 01:24:02;;;;;;;19.55;12.30;;;10.10;99.90;;;;;;4735331;30;20131;-50
2023/10/27 01:26:28;;;;;;;18.90;12.77;;;10.10;99.90;;;;;;4734883;30;20076;-52
2023/10/27 01:28:54;;;;;;;18.25;12.13;;;10.10;99.90;;;;;;4735230;30;20064;-50
2023/10/27 01:31:20;;;;;;;18.45;11.35;;;10.10;99.90;;;;;;4735096;30;20067;-49
2023/10/27 01:33:45;;;;;;;18.13;11.77;;;10.10;99.90;;;;;;4735047;30;20076;-50
2023/10/27 01:36:11;;;;;;;19.55;12.48;;;10.00;99.90;;;;;;4735114;30;20106;-50
2023/10/27 01:38:37;;;;;;;18.95;12.82;;;10.00;99.90;;;;;;4735022;30;20044;-49
2023/10/27 01:41:02;;;;;;;20.58;12.90;;;10.00;99.90;;;;;;4734814;30;20048;-53
2023/10/27 01:43:28;;;;;;;20.20;12.43;;;10.00;99.90;;;;;;4735194;30;20127;-52
2023/10/27 01:45:54;;;;;;;23.55;13.38;;;10.10;99.90;;;;;;4734841;30;20041;-53
2023/10/27 01:48:19;;;;;;;22.63;13.57;;;10.10;99.90;;;;;;4735382;30;20044;-54
2023/10/27 01:50:45;;;;;;;22.13;13.88;;;10.10;99.90;;;;;;4735082;30;20068;-51
2023/10/27 01:53:11;;;;;;;21.75;14.00;;;10.10;99.90;;;;;;4734932;30;20474;-53
2023/10/27 01:55:36;;;;;;;21.25;13.43;;;10.00;99.90;;;;;;4733618;30;20041;-50
2023/10/27 01:58:02;;;;;;;22.45;13.77;;;10.10;99.90;;;;;;4746296;30;20078;-51
2023/10/27 02:00:28;;;;;;;21.63;12.90;;;10.00;99.90;;;;;;4770316;30;20168;-49
2023/10/27 02:02:53;;;;;;;22.50;13.60;;;10.10;99.90;;;;;;4770015;30;20572;-50
2023/10/27 02:05:19;;;;;;;21.30;13.63;;;10.10;99.90;;;;;;4770136;30;20055;-50
2023/10/27 02:07:45;;;;;;;22.08;13.73;;;10.10;99.90;;;;;;4770186;30;20039;-50
2023/10/27 02:10:10;;;;;;;23.92;13.43;;;10.10;99.90;;;;;;4769935;30;20050;-52
2023/10/27 02:12:36;;;;;;;23.70;13.88;;;10.00;99.90;;;;;;4770048;30;20035;-51
2023/10/27 02:15:02;;;;;;;22.17;13.50;;;10.10;99.90;;;;;;4770193;30;20512;-51
2023/10/27 02:17:28;;;;;;;23.20;13.70;;;10.10;99.90;;;;;;4770001;30;20123;-53
2023/10/27 02:19:55;;;;;;;22.92;14.02;;;10.00;99.90;;;;;;4769711;30;20123;-53
2023/10/27 02:22:22;;;;;;;22.13;14.18;;;10.00;99.90;;;;;;4769612;30;20150;-51
2023/10/27 02:24:47;;;;;;;22.83;14.55;;;10.00;99.90;;;;;;4769581;30;20613;-51
2023/10/27 02:27:13;;;;;;;23.60;13.90;;;10.00;99.90;;;;;;4770150;30;20043;-51
2023/10/27 02:29:39;;;;;;;24.30;14.23;;;10.00;99.90;;;;;;4769698;30;20047;-48
2023/10/27 02:32:05;;;;;;;22.75;15.05;;;9.90;99.90;;;;;;4769808;30;20346;-52
2023/10/27 02:34:30;;;;;;;23.17;14.93;;;10.00;99.90;;;;;;4769680;30;20054;-50
2023/10/27 02:36:56;;;;;;;23.10;14.60;;;9.90;99.90;;;;;;4770027;30;20126;-50
2023/10/27 02:39:22;;;;;;;20.77;14.20;;;10.00;99.90;;;;;;4769804;30;20044;-50
2023/10/27 02:41:48;;;;;;;22.35;15.00;;;9.90;99.90;;;;;;4769843;30;20077;-49
2023/10/27 02:44:13;;;;;;;19.90;12.85;;;9.90;99.90;;;;;;4769704;30;20043;-53
2023/10/27 02:46:39;;;;;;;21.17;14.00;;;9.90;99.90;;;;;;4768441;30;20039;-53
2023/10/27 02:49:05;;;;;;;22.67;14.05;;;9.90;99.90;;;;;;4769748;30;20397;-51
2023/10/27 02:51:31;;;;;;;23.80;14.93;;;9.90;99.90;;;;;;4768539;30;20062;-49
2023/10/27 02:53:57;;;;;;;21.05;13.52;;;9.80;99.90;;;;;;4769718;30;20083;-53
2023/10/27 02:56:23;;;;;;;22.02;14.15;;;9.80;99.90;;;;;;4767539;30;20098;-50
2023/10/27 02:58:49;;;;;;;22.98;14.55;;;9.80;99.90;;;;;;4769220;30;20099;-49
2023/10/27 03:01:16;;;;;;;20.60;14.27;;;9.80;99.90;;;;;;4769439;30;20134;-51
2023/10/27 03:03:45;;;;;;;20.63;13.50;;;9.80;99.90;;;;;;4769460;30;20400;-52
2023/10/27 03:06:11;;;;;;;21.02;14.70;;;9.80;99.90;;;;;;4769367;30;20558;-54
2023/10/27 03:08:39;;;;;;;21.58;14.23;;;9.70;99.90;;;;;;4769256;30;20508;-49
2023/10/27 03:11:05;;;;;;;21.08;13.50;;;9.80;99.90;;;;;;4769520;30;20048;-50
2023/10/27 03:13:31;;;;;;;21.15;14.18;;;9.80;99.90;;;;;;4769521;30;20101;-53
2023/10/27 03:16:02;;;;;;;22.08;13.48;;;9.80;99.90;;;;;;4769378;30;20043;-50
2023/10/27 03:18:27;;;;;;;20.40;13.32;;;9.80;99.90;;;;;;4769510;30;20059;-53
2023/10/27 03:21:03;;;;;;;20.35;13.68;;;9.70;99.90;;;;;;4769220;30;20052;-49
2023/10/27 03:23:29;;;;;;;20.73;13.65;;;9.80;99.90;;;;;;4769114;30;20083;-50
2023/10/27 03:25:55;;;;;;;21.85;14.13;;;9.70;99.90;;;;;;4769194;30;20082;-50
2023/10/27 03:28:21;;;;;;;19.25;13.18;;;9.70;99.90;;;;;;4769186;30;20044;-53
2023/10/27 03:30:48;;;;;;;21.27;13.45;;;9.70;99.90;;;;;;4769127;30;20040;-50
2023/10/27 03:33:14;;;;;;;21.50;13.32;;;9.70;99.90;;;;;;4769087;30;20112;-49
2023/10/27 03:35:42;;;;;;;22.17;13.18;;;9.70;99.90;;;;;;4769059;30;20112;-50
2023/10/27 03:38:12;;;;;;;19.83;11.88;;;9.70;99.90;;;;;;4769258;30;20044;-50
2023/10/27 03:40:38;;;;;;;18.73;13.13;;;9.60;99.90;;;;;;4769305;30;20447;-52
2023/10/27 03:43:04;;;;;;;19.23;12.80;;;9.70;99.90;;;;;;4768874;30;20571;-52
2023/10/27 03:45:29;;;;;;;19.48;12.75;;;9.70;99.90;;;;;;4769081;30;20090;-50
2023/10/27 03:47:55;;;;;;;19.17;12.77;;;9.70;99.90;;;;;;4769333;30;20039;-49
2023/10/27 03:50:21;;;;;;;18.70;12.20;;;9.70;99.90;;;;;;4772736;30;20039;-53
2023/10/27 03:52:47;;;;;;;20.27;12.55;;;9.70;99.90;;;;;;4774876;30;20500;-50
2023/10/27 03:55:12;;;;;;;19.95;12.88;;;9.70;99.90;;;;;;4774821;30;20054;-50
2023/10/27 03:57:40;;;;;;;21.50;13.18;;;9.80;99.90;;;;;;4774532;30;20056;-50
2023/10/27 04:00:07;;;;;;;22.15;14.32;;;9.70;99.90;;;;;;4774793;30;20500;-52
2023/10/27 04:02:36;;;;;;;20.05;13.18;;;9.80;99.90;;;;;;4758463;30;20190;-51
2023/10/27 04:05:05;;;;;;;19.48;13.02;;;9.80;99.90;;;;;;4774938;30;20119;-49
2023/10/27 04:07:31;;;;;;;19.95;13.10;;;9.70;99.90;;;;;;4774517;30;20516;-50
2023/10/27 04:09:57;;;;;;;20.35;13.32;;;9.70;99.90;;;;;;4773425;30;20047;-53
2023/10/27 04:12:22;;;;;;;20.40;12.88;;;9.70;99.90;;;;;;4774528;30;20544;-52
2023/10/27 04:14:48;;;;;;;21.23;13.48;;;9.70;99.90;;;;;;4774644;30;20584;-54
2023/10/27 04:17:14;;;;;;;22.35;13.20;;;9.70;99.90;;;;;;4774599;30;20048;-52
2023/10/27 04:19:43;;;;;;;23.35;14.27;;;9.70;99.90;;;;;;4774510;30;20139;-49
2023/10/27 04:22:09;;;;;;;21.40;14.32;;;9.70;99.90;;;;;;4774759;30;20273;-51
2023/10/27 04:24:35;;;;;;;20.67;13.65;;;9.70;99.90;;;;;;4775063;30;20075;-53
2023/10/27 04:27:00;;;;;;;22.00;14.18;;;9.80;99.90;;;;;;4774705;30;20501;-51
2023/10/27 04:29:26;;;;;;;22.77;14.63;;;9.70;99.90;;;;;;4774432;30;20039;-55
2023/10/27 04:31:52;;;;;;;21.17;13.85;;;9.70;99.90;;;;;;4774787;30;20499;-63
2023/10/27 04:34:18;;;;;;;22.88;13.93;;;9.70;99.90;;;;;;4774433;30;20420;-51
2023/10/27 04:36:44;;;;;;;21.48;13.63;;;9.70;99.90;;;;;;4774800;30;20059;-52
2023/10/27 04:39:10;;;;;;;21.20;14.15;;;9.60;99.90;;;;;;4774596;30;20054;-53
2023/10/27 04:41:36;;;;;;;21.17;13.90;;;9.60;99.90;;;;;;4774430;30;20127;-51
2023/10/27 04:44:02;;;;;;;21.45;14.43;;;9.60;99.90;;;;;;4774425;30;20044;-49
2023/10/27 04:46:27;;;;;;;22.90;14.55;;;9.60;99.90;;;;;;4774436;30;20051;-50
2023/10/27 04:48:53;;;;;;;24.50;14.13;;;9.60;99.90;;;;;;4774604;30;20054;-51
2023/10/27 04:51:20;;;;;;;22.92;14.38;;;9.60;99.90;;;;;;4774702;30;20051;-51
2023/10/27 04:53:46;;;;;;;22.23;14.23;;;9.60;99.90;;;;;;4774442;30;20055;-53
2023/10/27 04:56:12;;;;;;;24.63;14.60;;;9.50;99.90;;;;;;4774261;30;20412;-52
2023/10/27 04:58:39;;;;;;;21.83;13.88;;;9.50;99.90;;;;;;4773855;30;20056;-52
2023/10/27 05:01:05;;;;;;;24.70;15.68;;;9.50;99.90;;;;;;4771533;30;20056;-49
2023/10/27 05:03:31;;;;;;;24.17;15.48;;;9.50;99.90;;;;;;4771386;30;20397;-50
2023/10/27 05:06:09;;;;;;;24.20;14.63;;;9.40;99.90;;;;;;4771701;30;20563;-51
2023/10/27 05:08:35;;;;;;;24.27;15.00;;;9.40;99.90;;;;;;4771457;30;20056;-51
2023/10/27 05:11:00;;;;;;;23.63;15.45;;;9.30;99.90;;;;;;4770311;30;20051;-51
2023/10/27 05:13:26;;;;;;;23.55;15.57;;;9.40;99.90;;;;;;4771519;30;20154;-49
2023/10/27 05:15:54;;;;;;;23.75;14.82;;;9.30;99.90;;;;;;4771376;30;20048;-49
2023/10/27 05:18:20;;;;;;;24.25;15.68;;;9.30;99.90;;;;;;4771570;30;20044;-52
2023/10/27 05:20:45;;;;;;;23.42;15.15;;;9.30;99.90;;;;;;4771320;30;20047;-52
2023/10/27 05:23:11;;;;;;;25.55;15.20;;;9.40;99.90;;;;;;4771167;30;20061;-51
2023/10/27 05:25:37;;;;;;;22.10;14.73;;;9.40;99.90;;;;;;4771343;30;20050;-48
2023/10/27 05:28:03;;;;;;;23.17;15.05;;;9.30;99.90;;;;;;4770145;30;20047;-51
2023/10/27 05:30:28;;;;;;;23.25;14.98;;;9.40;99.90;;;;;;4769699;30;20062;-48
2023/10/27 05:32:54;;;;;;;23.15;14.73;;;9.40;99.90;;;;;;4771247;30;20408;-51
2023/10/27 05:35:20;;;;;;;25.90;16.05;;;9.50;99.90;;;;;;4771188;30;20051;-53
2023/10/27 05:37:45;;;;;;;23.63;14.82;;;9.50;99.90;;;;;;4771018;30;20105;-48
2023/10/27 05:40:11;;;;;;;23.20;14.55;;;9.50;99.90;;;;;;4770781;30;20048;-51
2023/10/27 05:42:37;;;;;;;24.90;15.32;;;9.50;99.90;;;;;;4769551;30;20059;-49
2023/10/27 05:45:03;;;;;;;24.52;16.67;;;9.50;99.90;;;;;;4770841;30;20047;-53
2023/10/27 05:47:29;;;;;;;24.58;14.95;;;9.50;99.90;;;;;;4771082;30;20048;-51
2023/10/27 05:49:55;;;;;;;24.25;15.15;;;9.60;99.90;;;;;;4770803;30;20104;-48
2023/10/27 05:52:21;;;;;;;24.15;15.43;;;9.70;99.90;;;;;;4770792;30;20291;-50
2023/10/27 05:54:46;;;;;;;25.65;15.00;;;9.60;99.90;;;;;;4770560;30;20441;-52
2023/10/27 05:57:12;;;;;;;22.38;14.38;;;9.60;99.90;;;;;;4784489;29;20052;-52
2023/10/27 05:59:38;;;;;;;24.85;13.85;;;9.60;99.90;;;;;;4770404;30;20071;-49
2023/10/27 06:02:04;;;;;;;23.23;13.80;;;9.60;99.90;;;;;;4770813;30;20055;-50
2023/10/27 06:04:29;;;;;;;25.67;14.23;;;9.60;99.90;;;;;;4770681;30;20052;-51
2023/10/27 06:06:55;;;;;;;23.60;14.52;;;9.60;99.90;;;;;;4770728;30;20048;-51
2023/10/27 06:09:20;;;;;;;19.70;13.43;;;9.60;99.90;;;;;;4770654;30;20044;-49
2023/10/27 06:11:46;;;;;;;22.63;13.77;;;9.60;99.90;;;;;;4770240;30;20480;-52
2023/10/27 06:14:12;;;;;;;22.85;13.90;;;9.60;99.90;;;;;;4770492;30;20050;-49
2023/10/27 06:16:37;;;;;;;23.00;13.60;;;9.60;99.90;;;;;;4770307;30;20048;-50
2023/10/27 06:19:03;;;;;;;23.60;14.65;;;9.70;99.90;;;;;;4770479;30;20051;-49
2023/10/27 06:21:30;;;;;;;24.33;14.45;;;9.60;99.90;;;;;;4768984;30;20071;-52
2023/10/27 06:23:55;;;;;;;22.48;13.68;;;9.60;99.90;;;;;;4769046;30;20476;-50
2023/10/27 06:26:22;;;;;;;24.13;13.85;;;9.70;99.90;;;;;;4768549;30;20124;-50
2023/10/27 06:28:48;;;;;;;21.48;12.98;;;9.70;99.90;;;;;;4768920;30;20218;-49
2023/10/27 06:31:14;;;;;;;21.27;13.55;;;9.80;99.90;;;;;;4768683;30;20428;-52
2023/10/27 06:33:39;;;;;;;20.25;12.85;;;9.70;99.90;;;;;;4768810;30;20387;-50
2023/10/27 06:36:05;;;;;;;20.88;12.82;;;9.70;99.90;;;;;;4768467;30;20095;-49
2023/10/27 06:38:31;;;;;;;20.38;12.55;;;9.70;99.90;;;;;;4768480;30;20082;-49
2023/10/27 06:40:57;;;;;;;20.48;13.20;;;9.70;99.90;;;;;;4767957;30;20075;-52
2023/10/27 06:43:22;;;;;;;20.52;14.25;;;9.70;99.90;;;;;;4767922;30;20108;-52
2023/10/27 06:45:48;;;;;;;20.85;13.93;;;9.70;99.90;;;;;;4767779;30;20093;-49
2023/10/27 06:48:14;;;;;;;20.42;13.35;;;9.90;99.90;;;;;;4767937;30;20044;-50
2023/10/27 06:50:40;;;;;;;19.80;13.00;;;9.80;99.90;;;;;;4767757;30;20036;-49
2023/10/27 06:53:06;;;;;;;20.73;13.35;;;9.80;99.90;;;;;;4766942;30;20079;-52
2023/10/27 06:55:35;;;;;;;20.15;12.23;;;9.80;99.90;;;;;;4767916;30;20096;-51
2023/10/27 06:58:00;;;;;;;22.55;13.13;;;9.90;99.90;;;;;;4768050;30;20417;-49
2023/10/27 07:00:26;;;;;;;21.80;13.45;;;9.90;99.90;;;;;;4768589;30;20060;-52
2023/10/27 07:02:52;;;;;;;21.35;12.55;;;9.90;99.90;;;;;;4768167;30;20525;-51
2023/10/27 07:05:18;;;;;;;18.25;11.85;;;9.90;99.90;;;;;;4768348;30;20436;-50
2023/10/27 07:07:44;;;;;;;20.65;12.38;;;9.90;99.90;;;;;;4768024;30;20270;-50
2023/10/27 07:10:11;;;;;;;20.30;12.70;;;9.90;99.90;;;;;;4768271;30;20431;-52
2023/10/27 07:12:37;;;;;;;18.05;11.73;;;9.90;99.90;;;;;;4767799;30;20052;-50
2023/10/27 07:15:03;;;;;;;20.58;12.70;;;9.90;99.90;;;;;;4768174;30;20051;-52
2023/10/27 07:17:29;;;;;;;18.52;12.50;;;10.00;99.90;;;;;;4766497;30;20071;-49
2023/10/27 07:19:55;;;;;;;20.00;12.98;;;10.00;99.90;;;;;;4767973;30;20410;-50
2023/10/27 07:22:20;;;;;;;19.00;12.50;;;9.90;99.90;;;;;;4767581;30;20125;-51
2023/10/27 07:24:47;;;;;;;20.75;12.93;;;10.00;99.90;;;;;;4766004;30;20082;-51
2023/10/27 07:27:13;;;;;;;19.98;12.85;;;10.00;99.90;;;;;;4767883;30;20069;-52
2023/10/27 07:29:39;;;;;;;21.27;13.32;;;10.00;99.90;;;;;;4766711;30;20478;-50
2023/10/27 07:32:05;;;;;;;20.45;13.27;;;10.00;99.90;;;;;;4767692;30;20128;-52
2023/10/27 07:34:31;;;;;;;18.65;12.23;;;10.00;99.90;;;;;;4767133;30;20104;-53
2023/10/27 07:36:57;;;;;;;18.20;11.95;;;10.00;99.90;;;;;;4766029;30;20130;-50
2023/10/27 07:39:23;;;;;;;17.80;11.77;;;10.00;99.90;;;;;;4766180;30;20055;-48
2023/10/27 07:41:51;;;;;;;18.17;11.43;;;10.10;99.90;;;;;;4767221;30;20275;-53
2023/10/27 07:44:18;;;;;;;18.02;11.77;;;10.10;99.90;;;;;;4766516;30;20148;-49
2023/10/27 07:46:43;;;;;;;20.00;12.25;;;10.10;99.90;;;;;;4766392;30;20497;-52
2023/10/27 07:49:09;;;;;;;16.83;11.20;;;10.10;99.90;;;;;;4767798;30;20047;-53
2023/10/27 07:51:35;;;;;;;19.75;12.23;;;10.10;99.90;;;;;;4767410;30;20497;-49
2023/10/27 07:54:04;;;;;;;17.15;12.07;;;10.10;99.90;;;;;;4767992;30;20326;-51
2023/10/27 07:56:30;;;;;;;18.17;12.70;;;10.20;99.90;;;;;;4767536;30;20071;-50
2023/10/27 07:58:56;;;;;;;20.30;13.52;;;10.10;99.90;;;;;;4767296;30;20163;-49
2023/10/27 08:01:21;;;;;;;19.98;13.38;;;10.20;99.90;;;;;;4767202;30;20516;-52
2023/10/27 08:03:47;;;;;;;20.17;13.02;;;10.20;99.90;;;;;;4766949;30;20075;-50
2023/10/27 08:06:13;;;;;;;19.30;13.13;;;10.20;99.90;;;;;;4767132;30;20082;-53
2023/10/27 08:08:39;;;;;;;20.55;13.38;;;10.20;99.90;;;;;;4767327;30;20043;-51
2023/10/27 08:11:05;;;;;;;19.55;12.73;;;10.20;99.90;;;;;;4766178;30;20055;-53
2023/10/27 08:13:32;;;;;;;18.25;12.48;;;10.20;99.90;;;;;;4767582;30;20434;-53
2023/10/27 08:16:02;;;;;;;19.70;12.05;;;10.20;99.90;;;;;;4766968;30;20052;-49
2023/10/27 08:18:28;;;;;;;21.02;13.50;;;10.30;99.90;;;;;;4766716;30;20434;-50
2023/10/27 08:20:56;;;;;;;19.17;13.20;;;10.20;99.90;;;;;;4766870;30;20058;-50
2023/10/27 08:23:22;;;;;;;18.77;13.10;;;10.30;99.90;;;;;;4766613;30;20510;-52
2023/10/27 08:25:51;;;;;;;19.92;13.65;;;10.30;99.90;;;;;;4766954;30;20050;-52
2023/10/27 08:28:20;;;;;;;18.35;12.32;;;10.30;99.90;;;;;;4766340;30;20058;-53
2023/10/27 08:30:48;;;;;;;17.85;11.88;;;10.40;99.90;;;;;;4767039;30;20035;-52
2023/10/27 08:33:16;;;;;;;20.05;11.98;;;10.40;99.90;;;;;;4766648;30;20039;-50
2023/10/27 08:35:42;;;;;;;17.52;12.02;;;10.40;99.90;;;;;;4768642;30;20058;-50
2023/10/27 08:38:08;;;;;;;17.05;11.32;;;10.40;99.90;;;;;;4770280;30;20505;-48
2023/10/27 08:40:36;;;;;;;19.60;12.60;;;10.40;99.90;;;;;;4771401;30;20051;-49
2023/10/27 08:43:03;;;;;;;18.35;12.55;;;10.40;99.90;;;;;;4788328;29;20047;-50
2023/10/27 08:45:29;;;;;;;17.40;11.60;;;10.50;99.90;;;;;;4788529;29;20085;-49
2023/10/27 08:47:55;;;;;;;16.88;11.48;;;10.50;99.90;;;;;;4787962;29;20043;-52
2023/10/27 08:50:22;;;;;;;17.35;11.98;;;10.60;99.90;;;;;;4788459;29;20050;-53
2023/10/27 08:52:51;;;;;;;15.80;11.05;;;10.60;99.90;;;;;;4788312;29;20047;-51
2023/10/27 08:55:20;;;;;;;15.30;10.57;;;10.60;99.90;;;;;;4787950;29;20577;-52
2023/10/27 08:57:46;;;;;;;16.92;11.68;;;10.60;99.90;;;;;;4788065;29;20043;-53
2023/10/27 09:00:12;;;;;;;16.63;10.80;;;10.60;99.90;;;;;;4788049;29;20112;-52
2023/10/27 09:02:38;;;;;;;17.40;11.25;;;10.60;99.90;;;;;;4785332;29;20060;-50
2023/10/27 09:05:09;;;;;;;15.70;10.50;;;10.50;99.90;;;;;;4771867;30;20104;-51
2023/10/27 09:07:35;;;;;;;15.55;11.10;;;10.50;99.90;;;;;;4771387;30;20139;-53
2023/10/27 09:10:04;;;;;;;14.02;9.93;;;10.50;99.90;;;;;;4771364;30;20509;-51
2023/10/27 09:12:31;;;;;;;14.43;9.95;;;10.50;99.90;;;;;;4771622;30;20123;-49
2023/10/27 09:15:07;;;;;;;17.33;11.82;;;10.50;99.90;;;;;;4771571;30;20097;-52
2023/10/27 09:17:52;;;;;;;12.93;9.10;;;10.50;99.90;;;;;;4771563;30;20134;-52
2023/10/27 09:20:23;;;;;;;12.63;8.10;;;10.50;99.90;;;;;;4771500;30;20079;-50
2023/10/27 09:23:04;;;;;;;11.60;8.10;;;10.50;99.90;;;;;;4771368;30;20496;-53
2023/10/27 09:25:32;;;;;;;14.38;8.38;;;10.50;99.90;;;;;;4771226;30;20078;-51
2023/10/27 09:27:59;;;;;;;12.63;7.70;;;10.50;99.90;;;;;;4771510;30;20040;-49
2023/10/27 09:30:27;;;;;;;12.02;8.20;;;10.50;99.90;;;;;;4771220;30;20043;-49
2023/10/27 09:32:53;;;;;;;12.88;8.10;;;10.60;99.90;;;;;;4771004;30;20152;-51
2023/10/27 09:35:19;;;;;;;12.13;7.55;;;10.60;99.90;;;;;;4771150;30;20082;-52
2023/10/27 09:37:50;;;;;;;10.88;7.70;;;10.70;99.90;;;;;;4771172;30;20160;-50
2023/10/27 09:40:16;;;;;;;11.65;7.53;;;10.70;99.90;;;;;;4769909;30;20158;-50
2023/10/27 09:42:43;;;;;;;11.35;7.28;;;10.70;99.90;;;;;;4770698;30;20126;-49
2023/10/27 09:45:13;;;;;;;10.57;7.00;;;10.80;99.90;;;;;;4769890;30;20519;-50
2023/10/27 09:47:47;;;;;;;13.27;7.40;;;10.80;99.90;;;;;;4769258;30;20383;-50
2023/10/27 09:50:33;;;;;;;10.90;6.63;;;10.70;99.90;;;;;;4770034;30;20071;-49
2023/10/27 09:53:02;;;;;;;10.55;7.13;;;10.70;99.90;;;;;;4769065;30;20056;-52
2023/10/27 09:55:30;;;;;;;11.25;6.68;;;10.70;99.90;;;;;;4770525;30;20059;-49
2023/10/27 09:57:57;;;;;;;11.50;6.93;;;10.60;99.90;;;;;;4770541;30;20084;-51
2023/10/27 10:00:27;;;;;;;11.43;7.43;;;10.70;99.90;;;;;;4769321;30;20093;-51
2023/10/27 10:02:55;;;;;;;11.80;6.38;;;10.70;99.90;;;;;;4770360;30;20056;-52
2023/10/27 10:05:21;;;;;;;12.60;7.53;;;10.70;99.90;;;;;;4770778;30;20062;-52
2023/10/27 10:07:56;;;;;;;10.75;6.47;;;10.70;99.90;;;;;;4770594;30;20089;-50
2023/10/27 10:10:35;;;;;;;9.73;6.30;;;10.80;99.90;;;;;;4770182;30;20075;-50
2023/10/27 10:13:14;;;;;;;11.35;6.50;;;10.80;99.90;;;;;;4770422;30;20059;-53
2023/10/27 10:15:44;;;;;;;10.35;6.15;;;10.90;99.90;;;;;;4769594;30;20144;-49
2023/10/27 10:18:32;;;;;;;11.90;6.40;;;10.90;99.90;;;;;;4769759;30;20039;-53
2023/10/27 10:20:59;;;;;;;10.55;5.93;;;11.00;99.90;;;;;;4769611;30;20432;-49
2023/10/27 10:23:40;;;;;;;10.38;6.15;;;11.00;99.90;;;;;;4769770;30;20497;-51
2023/10/27 10:26:06;;;;;;;9.65;6.03;;;11.10;99.90;;;;;;4768997;30;20409;-52
2023/10/27 10:28:33;;;;;;;9.48;5.20;;;11.20;99.90;;;;;;4769793;30;20047;-52
2023/10/27 10:31:11;;;;;;;9.75;6.07;;;11.20;99.90;;;;;;4768358;30;20507;-52
2023/10/27 10:33:40;;;;;;;9.20;5.70;;;11.20;99.90;;;;;;4767764;30;20460;-51
2023/10/27 10:36:18;;;;;;;10.02;5.65;;;11.30;99.90;;;;;;4769684;30;20044;-51
2023/10/27 10:38:56;;;;;;;9.65;5.97;;;11.30;99.90;;;;;;4768673;30;20042;-50
2023/10/27 10:41:54;;;;;;;8.57;5.65;;;11.30;99.90;;;;;;4767854;30;20378;-52
2023/10/27 10:44:20;;;;;;;9.85;5.88;;;11.30;99.90;;;;;;4765056;30;20170;-49
2023/10/27 10:46:46;;;;;;;9.57;6.75;;;11.30;99.90;;;;;;4768748;30;20501;-48
2023/10/27 10:49:25;;;;;;;10.23;5.72;;;11.30;99.90;;;;;;4769311;30;20050;-48
2023/10/27 10:51:58;;;;;;;9.63;5.78;;;11.30;99.90;;;;;;4768029;30;20046;-51
2023/10/27 10:54:31;;;;;;;10.20;5.30;;;11.20;99.90;;;;;;4767394;30;20409;-50
2023/10/27 10:57:07;;;;;;;9.65;5.40;;;11.20;99.90;;;;;;4768654;30;20048;-48
2023/10/27 10:59:33;;;;;;;7.35;4.55;;;11.20;99.90;;;;;;4766507;30;20059;-48
2023/10/27 11:02:00;;;;;;;9.80;5.50;;;11.20;99.90;;;;;;4769561;30;20051;-49
2023/10/27 11:04:33;;;;;;;10.18;5.50;;;11.20;99.90;;;;;;4769802;30;20048;-49
2023/10/27 11:07:02;;;;;;;9.40;5.63;;;11.20;99.90;;;;;;4769560;30;20106;-49
2023/10/27 11:09:28;;;;;;;10.65;6.10;;;11.20;99.90;;;;;;4768925;30;20132;-52
2023/10/27 11:11:55;;;;;;;9.80;6.82;;;11.20;99.90;;;;;;4768281;30;20051;-49
2023/10/27 11:14:20;;;;;;;9.23;5.63;;;11.20;99.90;;;;;;4768825;30;20048;-48
2023/10/27 11:17:00;;;;;;;8.75;5.43;;;11.30;99.90;;;;;;4768898;30;20401;-48
2023/10/27 11:19:26;;;;;;;9.07;5.65;;;11.30;99.90;;;;;;4767267;30;20055;-49
2023/10/27 11:21:53;;;;;;;9.32;5.85;;;11.30;99.90;;;;;;4774684;30;20047;-49
2023/10/27 11:24:19;;;;;;;10.10;5.63;;;11.30;99.90;;;;;;4787226;29;20047;-48
2023/10/27 11:26:45;;;;;;;9.77;5.82;;;11.30;99.90;;;;;;4787172;29;20118;-48
2023/10/27 11:29:11;;;;;;;15.23;6.95;;;11.40;99.90;;;;;;4787226;29;20196;-49
2023/10/27 11:31:40;;;;;;;10.18;5.90;;;11.40;99.90;;;;;;4786905;29;20043;-47
2023/10/27 11:34:11;;;;;;;10.65;6.05;;;11.40;99.90;;;;;;4786007;29;20143;-51
2023/10/27 11:36:44;;;;;;;9.13;5.75;;;11.40;99.90;;;;;;4786757;29;20496;-65
2023/10/27 11:39:11;;;;;;;9.35;5.60;;;11.40;99.90;;;;;;4772168;29;20467;-59
2023/10/27 11:41:36;;;;;;;10.05;5.82;;;11.40;99.90;;;;;;4767461;30;20048;-51
2023/10/27 11:44:02;;;;;;;12.68;7.38;;;11.40;99.90;;;;;;4769112;30;20093;-51
2023/10/27 11:46:28;;;;;;;9.85;6.55;;;11.30;99.90;;;;;;4768785;30;20100;-49
2023/10/27 11:48:54;;;;;;;9.88;6.50;;;11.30;99.90;;;;;;4768648;30;20108;-50
2023/10/27 11:51:20;;;;;;;11.55;6.80;;;11.40;99.90;;;;;;4768556;30;20051;-49
2023/10/27 11:53:46;;;;;;;11.32;6.80;;;11.30;99.90;;;;;;4768705;30;20538;-49
2023/10/27 11:56:12;;;;;;;10.27;6.63;;;11.40;99.90;;;;;;4768643;30;20043;-49
2023/10/27 11:58:39;;;;;;;10.68;6.75;;;11.30;99.90;;;;;;4768831;30;20060;-47
2023/10/27 12:01:05;;;;;;;11.10;7.07;;;11.30;99.90;;;;;;4767499;30;20058;-47
2023/10/27 12:03:31;;;;;;;13.10;7.88;;;11.30;99.90;;;;;;4768189;30;20387;-48
2023/10/27 12:05:57;;;;;;;11.35;7.32;;;11.20;99.90;;;;;;4768260;30;20050;-48
2023/10/27 12:08:24;;;;;;;12.63;7.95;;;11.20;99.90;;;;;;4768435;30;20043;-48
2023/10/27 12:10:53;;;;;;;15.02;8.52;;;11.20;99.90;;;;;;4770840;30;20044;-48
2023/10/27 12:13:23;;;;;;;12.90;8.20;;;11.10;99.90;;;;;;4771965;30;20056;-48
2023/10/27 12:15:49;;;;;;;14.27;8.05;;;11.10;99.90;;;;;;4772300;30;20047;-47
2023/10/27 12:18:15;;;;;;;12.75;8.07;;;11.20;99.90;;;;;;4772194;30;20052;-48
2023/10/27 12:20:41;;;;;;;13.18;7.93;;;11.20;99.90;;;;;;4772139;30;20047;-49
2023/10/27 12:23:08;;;;;;;13.70;8.68;;;11.20;99.90;;;;;;4772436;30;20040;-49
2023/10/27 12:25:36;;;;;;;16.38;9.10;;;11.20;99.90;;;;;;4772215;30;20043;-48
2023/10/27 12:28:03;;;;;;;21.42;11.55;;;11.20;99.90;;;;;;4772382;30;20417;-47
2023/10/27 12:30:30;;;;;;;20.77;12.32;;;11.20;99.90;;;;;;4771515;30;20074;-49
2023/10/27 12:32:59;;;;;;;18.23;10.90;;;11.20;99.90;;;;;;4771600;30;20059;-47